sensor_id;sensor_type;location;lat;lon;timestamp;P1;durP1;ratioP1;P2;durP2;ratioP2
40164;SDS011;25882;51.120;17.248;2022-12-28T00:00:38;18.42;;;8.93;;
40164;SDS011;25882;51.120;17.248;2022-12-28T00:03:26;19.27;;;9.13;;
40164;SDS011;25882;51.120;17.248;2022-12-28T00:05:54;18.30;;;9.27;;
40164;SDS011;25882;51.120;17.248;2022-12-28T00:08:21;21.20;;;9.23;;
40164;SDS011;25882;51.120;17.248;2022-12-28T00:10:48;21.10;;;8.98;;
40164;SDS011;25882;51.120;17.248;2022-12-28T00:13:16;23.73;;;10.40;;
40164;SDS011;25882;51.120;17.248;2022-12-28T00:15:43;18.52;;;8.75;;
40164;SDS011;25882;51.120;17.248;2022-12-28T00:18:10;19.20;;;9.45;;
40164;SDS011;25882;51.120;17.248;2022-12-28T00:20:38;17.70;;;9.02;;
40164;SDS011;25882;51.120;17.248;2022-12-28T00:23:07;20.45;;;8.85;;
40164;SDS011;25882;51.120;17.248;2022-12-28T00:25:34;15.23;;;8.68;;
40164;SDS011;25882;51.120;17.248;2022-12-28T00:28:02;18.88;;;8.80;;
40164;SDS011;25882;51.120;17.248;2022-12-28T00:30:29;16.73;;;8.07;;
40164;SDS011;25882;51.120;17.248;2022-12-28T00:32:58;12.82;;;7.13;;
40164;SDS011;25882;51.120;17.248;2022-12-28T00:35:27;17.70;;;7.45;;
40164;SDS011;25882;51.120;17.248;2022-12-28T00:37:55;20.83;;;7.88;;
40164;SDS011;25882;51.120;17.248;2022-12-28T00:40:25;17.77;;;8.70;;
40164;SDS011;25882;51.120;17.248;2022-12-28T00:42:55;24.90;;;9.15;;
40164;SDS011;25882;51.120;17.248;2022-12-28T00:45:23;15.48;;;8.13;;
40164;SDS011;25882;51.120;17.248;2022-12-28T00:47:51;13.88;;;7.82;;
40164;SDS011;25882;51.120;17.248;2022-12-28T00:50:19;16.92;;;8.25;;
40164;SDS011;25882;51.120;17.248;2022-12-28T00:52:46;15.20;;;7.65;;
40164;SDS011;25882;51.120;17.248;2022-12-28T00:55:14;18.38;;;7.93;;
40164;SDS011;25882;51.120;17.248;2022-12-28T00:57:44;17.30;;;8.35;;
40164;SDS011;25882;51.120;17.248;2022-12-28T01:00:14;20.45;;;7.78;;
40164;SDS011;25882;51.120;17.248;2022-12-28T01:02:44;17.35;;;7.15;;
40164;SDS011;25882;51.120;17.248;2022-12-28T01:05:18;15.18;;;8.50;;
40164;SDS011;25882;51.120;17.248;2022-12-28T01:07:46;18.80;;;8.73;;
40164;SDS011;25882;51.120;17.248;2022-12-28T01:10:13;16.40;;;8.55;;
40164;SDS011;25882;51.120;17.248;2022-12-28T01:12:44;16.63;;;7.68;;
40164;SDS011;25882;51.120;17.248;2022-12-28T01:15:12;17.73;;;8.60;;
40164;SDS011;25882;51.120;17.248;2022-12-28T01:17:41;15.75;;;8.00;;
40164;SDS011;25882;51.120;17.248;2022-12-28T01:20:09;14.80;;;8.18;;
40164;SDS011;25882;51.120;17.248;2022-12-28T01:22:38;18.05;;;7.80;;
40164;SDS011;25882;51.120;17.248;2022-12-28T01:25:06;18.80;;;7.93;;
40164;SDS011;25882;51.120;17.248;2022-12-28T01:27:33;14.43;;;6.97;;
40164;SDS011;25882;51.120;17.248;2022-12-28T01:30:02;14.18;;;7.15;;
40164;SDS011;25882;51.120;17.248;2022-12-28T01:32:30;16.63;;;7.23;;
40164;SDS011;25882;51.120;17.248;2022-12-28T01:34:56;16.95;;;7.25;;
40164;SDS011;25882;51.120;17.248;2022-12-28T01:37:23;16.27;;;7.82;;
40164;SDS011;25882;51.120;17.248;2022-12-28T01:39:51;14.65;;;7.13;;
40164;SDS011;25882;51.120;17.248;2022-12-28T01:42:20;13.85;;;6.93;;
40164;SDS011;25882;51.120;17.248;2022-12-28T01:44:47;13.52;;;7.18;;
40164;SDS011;25882;51.120;17.248;2022-12-28T01:47:20;14.38;;;6.63;;
40164;SDS011;25882;51.120;17.248;2022-12-28T01:49:52;15.15;;;8.30;;
40164;SDS011;25882;51.120;17.248;2022-12-28T01:52:23;16.40;;;7.57;;
40164;SDS011;25882;51.120;17.248;2022-12-28T01:54:54;13.93;;;7.15;;
40164;SDS011;25882;51.120;17.248;2022-12-28T01:57:26;12.23;;;6.65;;
40164;SDS011;25882;51.120;17.248;2022-12-28T01:59:56;15.50;;;7.57;;
40164;SDS011;25882;51.120;17.248;2022-12-28T02:02:28;12.18;;;6.57;;
40164;SDS011;25882;51.120;17.248;2022-12-28T02:04:56;15.30;;;6.80;;
40164;SDS011;25882;51.120;17.248;2022-12-28T02:07:28;13.32;;;7.18;;
40164;SDS011;25882;51.120;17.248;2022-12-28T02:10:03;13.25;;;6.43;;
40164;SDS011;25882;51.120;17.248;2022-12-28T02:12:33;16.17;;;7.05;;
40164;SDS011;25882;51.120;17.248;2022-12-28T02:15:00;17.17;;;7.28;;
40164;SDS011;25882;51.120;17.248;2022-12-28T02:17:30;16.52;;;7.50;;
40164;SDS011;25882;51.120;17.248;2022-12-28T02:19:59;14.50;;;8.18;;
40164;SDS011;25882;51.120;17.248;2022-12-28T02:25:50;11.52;;;6.95;;
40164;SDS011;25882;51.120;17.248;2022-12-28T02:28:44;15.32;;;7.63;;
40164;SDS011;25882;51.120;17.248;2022-12-28T02:31:22;16.80;;;8.85;;
40164;SDS011;25882;51.120;17.248;2022-12-28T02:33:55;14.95;;;7.40;;
40164;SDS011;25882;51.120;17.248;2022-12-28T02:36:30;14.75;;;7.95;;
40164;SDS011;25882;51.120;17.248;2022-12-28T02:39:01;15.18;;;7.75;;
40164;SDS011;25882;51.120;17.248;2022-12-28T02:41:32;18.15;;;7.47;;
40164;SDS011;25882;51.120;17.248;2022-12-28T02:44:04;15.98;;;7.93;;
40164;SDS011;25882;51.120;17.248;2022-12-28T02:46:31;16.98;;;9.55;;
40164;SDS011;25882;51.120;17.248;2022-12-28T02:49:20;18.38;;;8.85;;
40164;SDS011;25882;51.120;17.248;2022-12-28T02:52:10;14.98;;;8.32;;
40164;SDS011;25882;51.120;17.248;2022-12-28T02:54:51;16.45;;;9.50;;
40164;SDS011;25882;51.120;17.248;2022-12-28T02:57:49;15.63;;;8.63;;
40164;SDS011;25882;51.120;17.248;2022-12-28T03:03:43;17.05;;;8.93;;
40164;SDS011;25882;51.120;17.248;2022-12-28T03:06:22;14.98;;;9.05;;
40164;SDS011;25882;51.120;17.248;2022-12-28T03:09:12;12.80;;;8.40;;
40164;SDS011;25882;51.120;17.248;2022-12-28T03:11:43;20.42;;;10.18;;
40164;SDS011;25882;51.120;17.248;2022-12-28T03:14:13;21.55;;;9.88;;
40164;SDS011;25882;51.120;17.248;2022-12-28T03:16:42;21.98;;;9.63;;
40164;SDS011;25882;51.120;17.248;2022-12-28T03:19:31;23.38;;;11.20;;
40164;SDS011;25882;51.120;17.248;2022-12-28T03:22:19;16.70;;;8.32;;
40164;SDS011;25882;51.120;17.248;2022-12-28T03:25:08;20.88;;;9.05;;
40164;SDS011;25882;51.120;17.248;2022-12-28T03:27:54;21.88;;;10.35;;
40164;SDS011;25882;51.120;17.248;2022-12-28T03:30:39;18.65;;;9.32;;
40164;SDS011;25882;51.120;17.248;2022-12-28T03:33:26;21.73;;;10.70;;
40164;SDS011;25882;51.120;17.248;2022-12-28T03:35:54;16.50;;;9.93;;
40164;SDS011;25882;51.120;17.248;2022-12-28T03:38:25;19.45;;;9.70;;
40164;SDS011;25882;51.120;17.248;2022-12-28T03:40:57;17.67;;;10.63;;
40164;SDS011;25882;51.120;17.248;2022-12-28T03:43:27;17.05;;;10.38;;
40164;SDS011;25882;51.120;17.248;2022-12-28T03:46:12;20.38;;;9.98;;
40164;SDS011;25882;51.120;17.248;2022-12-28T03:48:41;16.40;;;9.60;;
40164;SDS011;25882;51.120;17.248;2022-12-28T03:51:09;14.52;;;8.90;;
40164;SDS011;25882;51.120;17.248;2022-12-28T03:53:37;19.83;;;10.68;;
40164;SDS011;25882;51.120;17.248;2022-12-28T03:56:09;17.80;;;9.57;;
40164;SDS011;25882;51.120;17.248;2022-12-28T03:58:37;15.18;;;8.18;;
40164;SDS011;25882;51.120;17.248;2022-12-28T04:01:03;16.40;;;9.15;;
40164;SDS011;25882;51.120;17.248;2022-12-28T04:03:29;17.17;;;9.50;;
40164;SDS011;25882;51.120;17.248;2022-12-28T04:05:56;18.20;;;8.98;;
40164;SDS011;25882;51.120;17.248;2022-12-28T04:08:24;15.70;;;9.70;;
40164;SDS011;25882;51.120;17.248;2022-12-28T04:10:50;18.02;;;9.50;;
40164;SDS011;25882;51.120;17.248;2022-12-28T04:13:17;13.75;;;8.32;;
40164;SDS011;25882;51.120;17.248;2022-12-28T04:15:43;15.02;;;8.27;;
40164;SDS011;25882;51.120;17.248;2022-12-28T04:18:09;13.43;;;7.28;;
40164;SDS011;25882;51.120;17.248;2022-12-28T04:20:36;13.32;;;7.88;;
40164;SDS011;25882;51.120;17.248;2022-12-28T04:23:02;12.68;;;7.32;;
40164;SDS011;25882;51.120;17.248;2022-12-28T04:25:30;17.83;;;8.48;;
40164;SDS011;25882;51.120;17.248;2022-12-28T04:27:56;17.48;;;8.38;;
40164;SDS011;25882;51.120;17.248;2022-12-28T04:30:22;15.27;;;8.10;;
40164;SDS011;25882;51.120;17.248;2022-12-28T04:32:49;15.60;;;7.60;;
40164;SDS011;25882;51.120;17.248;2022-12-28T04:35:15;17.60;;;8.82;;
40164;SDS011;25882;51.120;17.248;2022-12-28T04:37:42;18.98;;;8.07;;
40164;SDS011;25882;51.120;17.248;2022-12-28T04:40:08;14.55;;;7.78;;
40164;SDS011;25882;51.120;17.248;2022-12-28T04:42:37;13.43;;;7.50;;
40164;SDS011;25882;51.120;17.248;2022-12-28T04:45:03;13.65;;;7.85;;
40164;SDS011;25882;51.120;17.248;2022-12-28T04:47:30;19.38;;;10.48;;
40164;SDS011;25882;51.120;17.248;2022-12-28T04:49:56;15.65;;;8.68;;
40164;SDS011;25882;51.120;17.248;2022-12-28T04:52:23;19.27;;;8.52;;
40164;SDS011;25882;51.120;17.248;2022-12-28T04:54:49;13.73;;;7.80;;
40164;SDS011;25882;51.120;17.248;2022-12-28T04:57:16;14.55;;;8.15;;
40164;SDS011;25882;51.120;17.248;2022-12-28T04:59:43;16.77;;;8.45;;
40164;SDS011;25882;51.120;17.248;2022-12-28T05:02:10;19.73;;;9.55;;
40164;SDS011;25882;51.120;17.248;2022-12-28T05:04:36;18.88;;;10.00;;
40164;SDS011;25882;51.120;17.248;2022-12-28T05:07:03;20.38;;;8.68;;
40164;SDS011;25882;51.120;17.248;2022-12-28T05:09:29;17.67;;;7.97;;
40164;SDS011;25882;51.120;17.248;2022-12-28T05:11:56;19.83;;;7.95;;
40164;SDS011;25882;51.120;17.248;2022-12-28T05:14:22;22.48;;;10.35;;
40164;SDS011;25882;51.120;17.248;2022-12-28T05:16:50;16.85;;;7.97;;
40164;SDS011;25882;51.120;17.248;2022-12-28T05:19:16;19.00;;;8.90;;
40164;SDS011;25882;51.120;17.248;2022-12-28T05:21:43;19.00;;;8.57;;
40164;SDS011;25882;51.120;17.248;2022-12-28T05:24:09;14.45;;;8.95;;
40164;SDS011;25882;51.120;17.248;2022-12-28T05:26:36;16.38;;;8.80;;
40164;SDS011;25882;51.120;17.248;2022-12-28T05:29:02;18.35;;;8.48;;
40164;SDS011;25882;51.120;17.248;2022-12-28T05:31:29;19.25;;;8.07;;
40164;SDS011;25882;51.120;17.248;2022-12-28T05:33:57;17.95;;;8.95;;
40164;SDS011;25882;51.120;17.248;2022-12-28T05:36:24;15.35;;;8.70;;
40164;SDS011;25882;51.120;17.248;2022-12-28T05:38:51;14.98;;;8.35;;
40164;SDS011;25882;51.120;17.248;2022-12-28T05:41:20;15.57;;;8.20;;
40164;SDS011;25882;51.120;17.248;2022-12-28T05:43:47;19.83;;;8.77;;
40164;SDS011;25882;51.120;17.248;2022-12-28T05:46:14;15.57;;;8.05;;
40164;SDS011;25882;51.120;17.248;2022-12-28T05:48:43;13.60;;;8.05;;
40164;SDS011;25882;51.120;17.248;2022-12-28T05:51:12;15.10;;;8.50;;
40164;SDS011;25882;51.120;17.248;2022-12-28T05:53:39;13.63;;;8.45;;
40164;SDS011;25882;51.120;17.248;2022-12-28T05:56:07;14.25;;;8.38;;
40164;SDS011;25882;51.120;17.248;2022-12-28T05:58:35;14.25;;;8.93;;
40164;SDS011;25882;51.120;17.248;2022-12-28T06:01:02;15.88;;;9.20;;
40164;SDS011;25882;51.120;17.248;2022-12-28T06:03:32;21.17;;;10.50;;
40164;SDS011;25882;51.120;17.248;2022-12-28T06:06:03;15.85;;;8.40;;
40164;SDS011;25882;51.120;17.248;2022-12-28T06:08:31;13.82;;;8.32;;
40164;SDS011;25882;51.120;17.248;2022-12-28T06:10:59;12.43;;;7.65;;
40164;SDS011;25882;51.120;17.248;2022-12-28T06:13:26;14.70;;;8.25;;
40164;SDS011;25882;51.120;17.248;2022-12-28T06:15:53;12.48;;;7.22;;
40164;SDS011;25882;51.120;17.248;2022-12-28T06:18:19;14.05;;;8.13;;
40164;SDS011;25882;51.120;17.248;2022-12-28T06:20:45;13.45;;;7.00;;
40164;SDS011;25882;51.120;17.248;2022-12-28T06:23:11;11.45;;;7.40;;
40164;SDS011;25882;51.120;17.248;2022-12-28T06:25:40;9.43;;;6.10;;
40164;SDS011;25882;51.120;17.248;2022-12-28T06:28:06;20.27;;;6.93;;
40164;SDS011;25882;51.120;17.248;2022-12-28T06:30:33;9.82;;;6.05;;
40164;SDS011;25882;51.120;17.248;2022-12-28T06:32:59;13.38;;;7.07;;
40164;SDS011;25882;51.120;17.248;2022-12-28T06:35:25;15.95;;;6.85;;
40164;SDS011;25882;51.120;17.248;2022-12-28T06:37:52;11.30;;;6.82;;
40164;SDS011;25882;51.120;17.248;2022-12-28T06:40:18;16.27;;;7.47;;
40164;SDS011;25882;51.120;17.248;2022-12-28T06:42:46;15.27;;;7.13;;
40164;SDS011;25882;51.120;17.248;2022-12-28T06:45:13;12.50;;;6.43;;
40164;SDS011;25882;51.120;17.248;2022-12-28T06:47:39;13.35;;;6.40;;
40164;SDS011;25882;51.120;17.248;2022-12-28T06:50:06;13.73;;;6.30;;
40164;SDS011;25882;51.120;17.248;2022-12-28T06:52:33;12.73;;;6.10;;
40164;SDS011;25882;51.120;17.248;2022-12-28T06:55:00;9.65;;;5.50;;
40164;SDS011;25882;51.120;17.248;2022-12-28T06:57:26;15.85;;;5.35;;
40164;SDS011;25882;51.120;17.248;2022-12-28T06:59:54;11.98;;;5.40;;
40164;SDS011;25882;51.120;17.248;2022-12-28T07:02:20;10.23;;;5.00;;
40164;SDS011;25882;51.120;17.248;2022-12-28T07:04:47;9.02;;;3.75;;
40164;SDS011;25882;51.120;17.248;2022-12-28T07:07:13;9.05;;;4.15;;
40164;SDS011;25882;51.120;17.248;2022-12-28T07:09:40;6.32;;;3.88;;
40164;SDS011;25882;51.120;17.248;2022-12-28T07:12:06;12.05;;;4.07;;
40164;SDS011;25882;51.120;17.248;2022-12-28T07:14:33;13.18;;;3.90;;
40164;SDS011;25882;51.120;17.248;2022-12-28T07:17:01;6.82;;;3.50;;
40164;SDS011;25882;51.120;17.248;2022-12-28T07:19:27;12.30;;;4.18;;
40164;SDS011;25882;51.120;17.248;2022-12-28T07:21:54;11.68;;;4.32;;
40164;SDS011;25882;51.120;17.248;2022-12-28T07:24:20;11.00;;;4.53;;
40164;SDS011;25882;51.120;17.248;2022-12-28T07:26:46;8.18;;;4.00;;
40164;SDS011;25882;51.120;17.248;2022-12-28T07:29:13;6.53;;;3.22;;
40164;SDS011;25882;51.120;17.248;2022-12-28T07:31:39;8.65;;;3.90;;
40164;SDS011;25882;51.120;17.248;2022-12-28T07:34:07;12.18;;;4.15;;
40164;SDS011;25882;51.120;17.248;2022-12-28T07:36:34;5.75;;;3.65;;
40164;SDS011;25882;51.120;17.248;2022-12-28T07:39:00;6.57;;;3.33;;
40164;SDS011;25882;51.120;17.248;2022-12-28T07:41:27;13.73;;;4.93;;
40164;SDS011;25882;51.120;17.248;2022-12-28T07:43:55;11.07;;;5.78;;
40164;SDS011;25882;51.120;17.248;2022-12-28T07:46:22;10.35;;;5.43;;
40164;SDS011;25882;51.120;17.248;2022-12-28T07:48:50;11.52;;;3.92;;
40164;SDS011;25882;51.120;17.248;2022-12-28T07:51:18;8.02;;;3.65;;
40164;SDS011;25882;51.120;17.248;2022-12-28T07:53:47;8.43;;;3.97;;
40164;SDS011;25882;51.120;17.248;2022-12-28T07:56:15;7.97;;;3.25;;
40164;SDS011;25882;51.120;17.248;2022-12-28T07:58:46;9.60;;;3.30;;
40164;SDS011;25882;51.120;17.248;2022-12-28T08:03:40;7.18;;;3.15;;
40164;SDS011;25882;51.120;17.248;2022-12-28T08:06:07;6.10;;;3.35;;
40164;SDS011;25882;51.120;17.248;2022-12-28T08:08:36;8.70;;;3.80;;
40164;SDS011;25882;51.120;17.248;2022-12-28T08:11:04;5.75;;;3.00;;
40164;SDS011;25882;51.120;17.248;2022-12-28T08:13:33;6.53;;;3.38;;
40164;SDS011;25882;51.120;17.248;2022-12-28T08:16:00;10.40;;;3.15;;
40164;SDS011;25882;51.120;17.248;2022-12-28T08:18:27;6.35;;;3.58;;
40164;SDS011;25882;51.120;17.248;2022-12-28T08:20:58;11.20;;;3.40;;
40164;SDS011;25882;51.120;17.248;2022-12-28T08:23:25;6.65;;;4.07;;
40164;SDS011;25882;51.120;17.248;2022-12-28T08:25:53;8.93;;;3.72;;
40164;SDS011;25882;51.120;17.248;2022-12-28T08:28:20;9.20;;;4.60;;
40164;SDS011;25882;51.120;17.248;2022-12-28T08:30:47;10.82;;;5.00;;
40164;SDS011;25882;51.120;17.248;2022-12-28T08:33:13;11.52;;;5.15;;
40164;SDS011;25882;51.120;17.248;2022-12-28T08:35:39;10.02;;;4.85;;
40164;SDS011;25882;51.120;17.248;2022-12-28T08:38:06;9.55;;;4.68;;
40164;SDS011;25882;51.120;17.248;2022-12-28T08:40:32;6.13;;;3.63;;
40164;SDS011;25882;51.120;17.248;2022-12-28T08:43:00;8.95;;;3.75;;
40164;SDS011;25882;51.120;17.248;2022-12-28T08:45:26;7.10;;;3.42;;
40164;SDS011;25882;51.120;17.248;2022-12-28T08:47:53;14.55;;;4.50;;
40164;SDS011;25882;51.120;17.248;2022-12-28T08:50:20;7.55;;;3.03;;
40164;SDS011;25882;51.120;17.248;2022-12-28T08:52:47;7.43;;;3.78;;
40164;SDS011;25882;51.120;17.248;2022-12-28T08:55:13;12.80;;;4.13;;
40164;SDS011;25882;51.120;17.248;2022-12-28T08:57:39;7.25;;;3.50;;
40164;SDS011;25882;51.120;17.248;2022-12-28T09:00:10;10.13;;;2.83;;
40164;SDS011;25882;51.120;17.248;2022-12-28T09:05:03;6.97;;;3.53;;
40164;SDS011;25882;51.120;17.248;2022-12-28T09:07:30;5.32;;;3.03;;
40164;SDS011;25882;51.120;17.248;2022-12-28T09:09:56;6.28;;;2.75;;
40164;SDS011;25882;51.120;17.248;2022-12-28T09:12:23;5.72;;;2.42;;
40164;SDS011;25882;51.120;17.248;2022-12-28T09:14:49;7.18;;;2.78;;
40164;SDS011;25882;51.120;17.248;2022-12-28T09:17:17;9.20;;;3.00;;
40164;SDS011;25882;51.120;17.248;2022-12-28T09:19:43;7.30;;;2.35;;
40164;SDS011;25882;51.120;17.248;2022-12-28T09:22:10;5.63;;;2.47;;
40164;SDS011;25882;51.120;17.248;2022-12-28T09:24:36;6.13;;;2.50;;
40164;SDS011;25882;51.120;17.248;2022-12-28T09:27:03;6.13;;;2.15;;
40164;SDS011;25882;51.120;17.248;2022-12-28T09:29:29;5.78;;;2.17;;
40164;SDS011;25882;51.120;17.248;2022-12-28T09:31:55;5.97;;;2.45;;
40164;SDS011;25882;51.120;17.248;2022-12-28T09:34:24;6.95;;;2.22;;
40164;SDS011;25882;51.120;17.248;2022-12-28T09:36:50;3.92;;;1.90;;
40164;SDS011;25882;51.120;17.248;2022-12-28T09:39:17;5.47;;;2.00;;
40164;SDS011;25882;51.120;17.248;2022-12-28T09:41:47;6.13;;;2.45;;
40164;SDS011;25882;51.120;17.248;2022-12-28T09:44:28;4.53;;;2.22;;
40164;SDS011;25882;51.120;17.248;2022-12-28T09:47:02;4.78;;;2.13;;
40164;SDS011;25882;51.120;17.248;2022-12-28T09:49:34;4.00;;;2.25;;
40164;SDS011;25882;51.120;17.248;2022-12-28T09:54:51;6.32;;;2.78;;
40164;SDS011;25882;51.120;17.248;2022-12-28T09:57:17;7.20;;;3.03;;
40164;SDS011;25882;51.120;17.248;2022-12-28T09:59:44;9.57;;;4.15;;
40164;SDS011;25882;51.120;17.248;2022-12-28T10:02:13;10.65;;;4.68;;
40164;SDS011;25882;51.120;17.248;2022-12-28T10:04:45;10.25;;;4.90;;
40164;SDS011;25882;51.120;17.248;2022-12-28T10:07:12;5.22;;;2.80;;
40164;SDS011;25882;51.120;17.248;2022-12-28T10:09:39;3.78;;;2.22;;
40164;SDS011;25882;51.120;17.248;2022-12-28T10:12:09;6.70;;;1.98;;
40164;SDS011;25882;51.120;17.248;2022-12-28T10:14:38;5.78;;;1.98;;
40164;SDS011;25882;51.120;17.248;2022-12-28T10:17:07;5.07;;;1.80;;
40164;SDS011;25882;51.120;17.248;2022-12-28T10:19:34;4.15;;;2.13;;
40164;SDS011;25882;51.120;17.248;2022-12-28T10:22:03;2.58;;;1.27;;
40164;SDS011;25882;51.120;17.248;2022-12-28T10:24:30;3.92;;;1.67;;
40164;SDS011;25882;51.120;17.248;2022-12-28T10:26:57;2.88;;;1.67;;
40164;SDS011;25882;51.120;17.248;2022-12-28T10:29:24;6.05;;;1.83;;
40164;SDS011;25882;51.120;17.248;2022-12-28T10:31:55;6.30;;;2.67;;
40164;SDS011;25882;51.120;17.248;2022-12-28T10:34:24;6.45;;;2.45;;
40164;SDS011;25882;51.120;17.248;2022-12-28T10:36:51;6.32;;;2.80;;
40164;SDS011;25882;51.120;17.248;2022-12-28T10:39:21;4.55;;;2.30;;
40164;SDS011;25882;51.120;17.248;2022-12-28T10:41:50;4.38;;;2.22;;
40164;SDS011;25882;51.120;17.248;2022-12-28T10:44:18;5.32;;;2.20;;
40164;SDS011;25882;51.120;17.248;2022-12-28T10:46:53;6.37;;;2.37;;
40164;SDS011;25882;51.120;17.248;2022-12-28T10:49:21;6.40;;;2.50;;
40164;SDS011;25882;51.120;17.248;2022-12-28T10:51:58;5.65;;;2.83;;
40164;SDS011;25882;51.120;17.248;2022-12-28T10:54:32;5.82;;;2.30;;
40164;SDS011;25882;51.120;17.248;2022-12-28T10:57:01;6.07;;;2.50;;
40164;SDS011;25882;51.120;17.248;2022-12-28T10:59:28;6.80;;;2.40;;
40164;SDS011;25882;51.120;17.248;2022-12-28T11:02:12;6.18;;;2.10;;
40164;SDS011;25882;51.120;17.248;2022-12-28T11:04:51;6.25;;;2.55;;
40164;SDS011;25882;51.120;17.248;2022-12-28T11:07:32;8.57;;;2.97;;
40164;SDS011;25882;51.120;17.248;2022-12-28T11:12:52;5.90;;;2.70;;
40164;SDS011;25882;51.120;17.248;2022-12-28T11:15:19;5.38;;;2.90;;
40164;SDS011;25882;51.120;17.248;2022-12-28T11:17:49;7.72;;;3.00;;
40164;SDS011;25882;51.120;17.248;2022-12-28T11:20:19;8.35;;;3.58;;
40164;SDS011;25882;51.120;17.248;2022-12-28T11:22:49;10.50;;;3.88;;
40164;SDS011;25882;51.120;17.248;2022-12-28T11:25:16;8.30;;;3.50;;
40164;SDS011;25882;51.120;17.248;2022-12-28T11:27:45;7.03;;;2.92;;
40164;SDS011;25882;51.120;17.248;2022-12-28T11:30:12;6.38;;;3.60;;
40164;SDS011;25882;51.120;17.248;2022-12-28T11:32:41;6.18;;;2.95;;
40164;SDS011;25882;51.120;17.248;2022-12-28T11:35:13;7.18;;;3.53;;
40164;SDS011;25882;51.120;17.248;2022-12-28T11:37:47;6.57;;;2.58;;
40164;SDS011;25882;51.120;17.248;2022-12-28T11:49:22;5.30;;;2.67;;
40164;SDS011;25882;51.120;17.248;2022-12-28T11:55:04;8.85;;;3.42;;
40164;SDS011;25882;51.120;17.248;2022-12-28T11:58:31;9.10;;;3.58;;
40164;SDS011;25882;51.120;17.248;2022-12-28T12:01:02;7.20;;;3.05;;
40164;SDS011;25882;51.120;17.248;2022-12-28T12:12:50;8.98;;;3.00;;
40164;SDS011;25882;51.120;17.248;2022-12-28T12:15:18;6.15;;;2.72;;
40164;SDS011;25882;51.120;17.248;2022-12-28T12:17:48;6.60;;;2.72;;
40164;SDS011;25882;51.120;17.248;2022-12-28T12:20:24;5.20;;;2.85;;
40164;SDS011;25882;51.120;17.248;2022-12-28T12:22:55;5.90;;;2.60;;
40164;SDS011;25882;51.120;17.248;2022-12-28T12:25:23;5.85;;;3.08;;
40164;SDS011;25882;51.120;17.248;2022-12-28T12:27:54;6.07;;;3.60;;
40164;SDS011;25882;51.120;17.248;2022-12-28T12:30:22;8.15;;;3.38;;
40164;SDS011;25882;51.120;17.248;2022-12-28T12:32:52;5.85;;;2.92;;
40164;SDS011;25882;51.120;17.248;2022-12-28T12:35:21;8.77;;;3.22;;
40164;SDS011;25882;51.120;17.248;2022-12-28T12:37:50;8.15;;;3.00;;
40164;SDS011;25882;51.120;17.248;2022-12-28T12:40:24;5.38;;;2.15;;
40164;SDS011;25882;51.120;17.248;2022-12-28T12:46:00;5.28;;;2.22;;
40164;SDS011;25882;51.120;17.248;2022-12-28T12:48:47;4.40;;;2.17;;
40164;SDS011;25882;51.120;17.248;2022-12-28T12:51:26;9.43;;;2.42;;
40164;SDS011;25882;51.120;17.248;2022-12-28T12:54:01;4.57;;;2.10;;
40164;SDS011;25882;51.120;17.248;2022-12-28T12:56:37;4.97;;;2.47;;
40164;SDS011;25882;51.120;17.248;2022-12-28T12:59:16;5.35;;;2.03;;
40164;SDS011;25882;51.120;17.248;2022-12-28T13:01:50;7.63;;;2.17;;
40164;SDS011;25882;51.120;17.248;2022-12-28T13:06:46;4.72;;;1.90;;
40164;SDS011;25882;51.120;17.248;2022-12-28T13:09:20;5.50;;;2.13;;
40164;SDS011;25882;51.120;17.248;2022-12-28T13:11:48;5.32;;;2.15;;
40164;SDS011;25882;51.120;17.248;2022-12-28T13:14:16;5.25;;;2.22;;
40164;SDS011;25882;51.120;17.248;2022-12-28T13:16:45;5.38;;;1.98;;
40164;SDS011;25882;51.120;17.248;2022-12-28T13:19:15;3.42;;;2.10;;
40164;SDS011;25882;51.120;17.248;2022-12-28T13:21:45;4.72;;;2.75;;
40164;SDS011;25882;51.120;17.248;2022-12-28T13:26:46;8.85;;;2.90;;
40164;SDS011;25882;51.120;17.248;2022-12-28T13:29:14;4.68;;;2.15;;
40164;SDS011;25882;51.120;17.248;2022-12-28T13:31:42;3.50;;;1.63;;
40164;SDS011;25882;51.120;17.248;2022-12-28T13:34:21;5.63;;;1.77;;
40164;SDS011;25882;51.120;17.248;2022-12-28T13:36:50;6.22;;;2.90;;
40164;SDS011;25882;51.120;17.248;2022-12-28T13:39:19;7.80;;;2.50;;
40164;SDS011;25882;51.120;17.248;2022-12-28T13:41:49;8.98;;;2.50;;
40164;SDS011;25882;51.120;17.248;2022-12-28T13:47:03;7.30;;;1.90;;
40164;SDS011;25882;51.120;17.248;2022-12-28T13:49:34;5.18;;;2.13;;
40164;SDS011;25882;51.120;17.248;2022-12-28T13:52:06;9.52;;;2.08;;
40164;SDS011;25882;51.120;17.248;2022-12-28T13:54:35;5.88;;;1.80;;
40164;SDS011;25882;51.120;17.248;2022-12-28T13:57:01;3.15;;;1.42;;
40164;SDS011;25882;51.120;17.248;2022-12-28T13:59:28;3.67;;;1.80;;
40164;SDS011;25882;51.120;17.248;2022-12-28T14:01:55;5.88;;;1.88;;
40164;SDS011;25882;51.120;17.248;2022-12-28T14:04:22;5.65;;;1.98;;
40164;SDS011;25882;51.120;17.248;2022-12-28T14:06:50;5.72;;;2.03;;
40164;SDS011;25882;51.120;17.248;2022-12-28T14:09:19;4.70;;;1.88;;
40164;SDS011;25882;51.120;17.248;2022-12-28T14:11:46;5.07;;;1.73;;
40164;SDS011;25882;51.120;17.248;2022-12-28T14:14:14;6.13;;;2.38;;
40164;SDS011;25882;51.120;17.248;2022-12-28T14:16:41;5.72;;;2.60;;
40164;SDS011;25882;51.120;17.248;2022-12-28T14:19:07;8.85;;;2.50;;
40164;SDS011;25882;51.120;17.248;2022-12-28T14:21:35;8.32;;;2.20;;
40164;SDS011;25882;51.120;17.248;2022-12-28T14:24:03;4.28;;;2.00;;
40164;SDS011;25882;51.120;17.248;2022-12-28T14:26:32;6.47;;;2.45;;
40164;SDS011;25882;51.120;17.248;2022-12-28T14:28:59;7.03;;;2.30;;
40164;SDS011;25882;51.120;17.248;2022-12-28T14:31:26;6.32;;;2.38;;
40164;SDS011;25882;51.120;17.248;2022-12-28T14:33:55;7.80;;;3.47;;
40164;SDS011;25882;51.120;17.248;2022-12-28T14:36:23;7.07;;;2.40;;
40164;SDS011;25882;51.120;17.248;2022-12-28T14:38:52;4.57;;;2.00;;
40164;SDS011;25882;51.120;17.248;2022-12-28T14:41:20;6.45;;;2.67;;
40164;SDS011;25882;51.120;17.248;2022-12-28T14:43:51;7.80;;;2.70;;
40164;SDS011;25882;51.120;17.248;2022-12-28T14:46:27;9.30;;;2.70;;
40164;SDS011;25882;51.120;17.248;2022-12-28T14:48:55;6.35;;;2.60;;
40164;SDS011;25882;51.120;17.248;2022-12-28T14:51:23;7.57;;;3.38;;
40164;SDS011;25882;51.120;17.248;2022-12-28T14:56:43;6.90;;;2.55;;
40164;SDS011;25882;51.120;17.248;2022-12-28T15:20:09;7.22;;;3.40;;
40164;SDS011;25882;51.120;17.248;2022-12-28T15:22:36;6.57;;;3.60;;
40164;SDS011;25882;51.120;17.248;2022-12-28T15:25:03;6.60;;;2.92;;
40164;SDS011;25882;51.120;17.248;2022-12-28T15:27:30;8.70;;;3.42;;
40164;SDS011;25882;51.120;17.248;2022-12-28T15:29:56;8.95;;;3.63;;
40164;SDS011;25882;51.120;17.248;2022-12-28T15:32:22;7.68;;;3.17;;
40164;SDS011;25882;51.120;17.248;2022-12-28T15:34:49;8.00;;;3.53;;
40164;SDS011;25882;51.120;17.248;2022-12-28T15:37:17;10.10;;;4.13;;
40164;SDS011;25882;51.120;17.248;2022-12-28T15:39:43;7.30;;;3.30;;
40164;SDS011;25882;51.120;17.248;2022-12-28T15:42:10;7.68;;;3.63;;
40164;SDS011;25882;51.120;17.248;2022-12-28T15:44:36;7.82;;;3.60;;
40164;SDS011;25882;51.120;17.248;2022-12-28T15:47:03;9.50;;;4.35;;
40164;SDS011;25882;51.120;17.248;2022-12-28T15:49:29;13.68;;;5.80;;
40164;SDS011;25882;51.120;17.248;2022-12-28T15:51:56;11.80;;;5.78;;